MMTC/TRC METAR and TAF weather

Enter ICAO airport designator
Station Type Date Time Source
MMTC METAR 2019/04/20 21:40 UTC NOAA

MMTC 202140Z 11008KT 15SM SCT250 34/M01 A2996 RMK 8/001


Station Type Date Time Source
MMTC Decoded METAR 2019/04/20 21:40 UTC NOAA

Torreon, Coah., Mexico (MMTC) 25-32N 103-27W 1150M
Apr 20, 2019 - 05:40 PM EDT / 2019.04.20 2140 UTC
Wind: from the ESE (110 degrees) at 9 MPH (8 KT):0
Visibility: 15 mile(s):0
Sky conditions: partly cloudy
Temperature: 93 F (34 C)
Dew Point: 30 F (-1 C)
Relative Humidity: 10%
Pressure (altimeter): 29.96 in. Hg (1014 hPa)
ob: MMTC 202140Z 11008KT 15SM SCT250 34/M01 A2996 RMK 8/001
cycle: 21

Station Type Date Time Source
MMTC TAF 2019/04/20 18:56 UTC NOAA

TAF MMTC 201649Z 2018/2118 13015KT P6SM SKC
BECMG 2102/2103 00000KT
FM211600 04010KT P6SM SKC

Example: see airport list